createdAt,value
2018-12-11T00:02:08.294Z,101752.37
2018-12-11T00:04:35.885Z,101751.59
2018-12-11T00:07:03.496Z,101751.98
2018-12-11T00:09:36.103Z,101749.77
2018-12-11T00:12:03.777Z,101751.91
2018-12-11T00:14:31.197Z,101751.91
2018-12-11T00:16:58.651Z,101752.74
2018-12-11T00:19:26.184Z,101747.12
2018-12-11T00:21:53.616Z,101742.07
2018-12-11T00:24:21.032Z,101749.56
2018-12-11T00:26:48.500Z,101746.59
2018-12-11T00:29:15.912Z,101748.01
2018-12-11T00:31:43.530Z,101742.32
2018-12-11T00:34:10.939Z,101750.11
2018-12-11T00:36:38.520Z,101751.05
2018-12-11T00:39:06.444Z,101746.86
2018-12-11T00:41:34.052Z,101742.20
2018-12-11T00:44:01.547Z,101751.38
2018-12-11T00:46:29.102Z,101744.52
2018-12-11T00:48:56.530Z,101743.40
2018-12-11T00:51:23.955Z,101746.11
2018-12-11T00:53:51.367Z,101739.20
2018-12-11T00:56:18.811Z,101741.84
2018-12-11T00:58:51.279Z,101744.87
2018-12-11T01:01:18.733Z,101742.17
2018-12-11T01:03:46.185Z,101742.63
2018-12-11T01:06:13.607Z,101746.97
2018-12-11T01:08:41.109Z,101750.40
2018-12-11T01:11:08.600Z,101746.97
2018-12-11T01:13:36.023Z,101744.88
2018-12-11T01:16:03.448Z,101752.25
2018-12-11T01:18:30.878Z,101748.38
2018-12-11T01:20:58.307Z,101743.25
2018-12-11T01:23:25.758Z,101753.73
2018-12-11T01:25:53.228Z,101742.52
2018-12-11T01:28:20.672Z,101744.73
2018-12-11T01:30:48.085Z,101741.69
2018-12-11T01:33:15.523Z,101741.23
2018-12-11T01:35:43.045Z,101737.28
2018-12-11T01:38:10.459Z,101738.06
2018-12-11T01:40:37.939Z,101741.11
2018-12-11T01:43:05.376Z,101741.55
2018-12-11T01:45:32.816Z,101742.46
2018-12-11T01:48:00.290Z,101745.06
2018-12-11T01:50:27.809Z,101747.52
2018-12-11T01:52:55.314Z,101747.81
2018-12-11T01:55:22.764Z,101756.42
2018-12-11T01:57:50.218Z,101762.05
2018-12-11T02:00:17.640Z,101750.38
2018-12-11T02:02:45.084Z,101756.02
2018-12-11T02:05:12.527Z,101754.27
2018-12-11T02:07:39.945Z,101753.70
2018-12-11T02:10:08.574Z,101753.58
2018-12-11T02:12:41.175Z,101756.05
2018-12-11T02:15:08.615Z,101747.23
2018-12-11T02:17:36.019Z,101743.63
2018-12-11T02:20:04.606Z,101742.70
2018-12-11T02:22:32.032Z,101744.38
2018-12-11T02:24:59.482Z,101744.26
2018-12-11T02:27:26.906Z,101748.98
2018-12-11T02:29:54.587Z,101753.22
2018-12-11T02:32:22.019Z,101748.02
2018-12-11T02:34:49.562Z,101746.98
2018-12-11T02:37:16.976Z,101740.38
2018-12-11T02:39:44.551Z,101741.55
2018-12-11T02:42:11.988Z,101741.03
2018-12-11T02:44:39.431Z,101739.73
2018-12-11T02:47:06.902Z,101741.48
2018-12-11T02:49:34.354Z,101741.41
2018-12-11T02:52:01.795Z,101754.22
2018-12-11T02:54:29.231Z,101751.62
2018-12-11T02:56:56.656Z,101748.65
2018-12-11T02:59:24.090Z,101749.89
2018-12-11T03:01:51.546Z,101752.40
2018-12-11T03:04:23.928Z,101749.36
2018-12-11T03:06:51.398Z,101745.09
2018-12-11T03:09:18.838Z,101756.88
2018-12-11T03:11:46.271Z,101751.47
2018-12-11T03:14:13.680Z,101755.07
2018-12-11T03:16:46.321Z,101746.77
2018-12-11T03:19:13.904Z,101744.19
2018-12-11T03:21:41.351Z,101746.02
2018-12-11T03:24:08.891Z,101745.58
2018-12-11T03:26:36.433Z,101743.83
2018-12-11T03:29:03.847Z,101736.49
2018-12-11T03:31:31.393Z,101729.97
2018-12-11T03:33:58.836Z,101726.85
2018-12-11T03:36:26.360Z,101725.94
2018-12-11T03:38:53.800Z,101722.89
2018-12-11T03:41:21.302Z,101719.41
2018-12-11T03:43:48.759Z,101727.12
2018-12-11T03:46:16.172Z,101724.20
2018-12-11T03:48:43.758Z,101725.69
2018-12-11T03:51:11.286Z,101727.45
2018-12-11T03:53:38.717Z,101722.20
2018-12-11T03:56:06.126Z,101720.91
2018-12-11T03:58:33.648Z,101710.99
2018-12-11T04:01:01.073Z,101712.77
2018-12-11T04:03:28.504Z,101715.73
2018-12-11T04:05:55.918Z,101716.57
2018-12-11T04:08:23.362Z,101710.09
2018-12-11T04:10:50.788Z,101714.87
2018-12-11T04:13:18.274Z,101710.53
2018-12-11T04:15:45.736Z,101714.11
2018-12-11T04:18:13.152Z,101720.38
2018-12-11T04:20:40.681Z,101723.09
2018-12-11T04:23:08.158Z,101729.58
2018-12-11T04:25:35.809Z,101722.70
2018-12-11T04:28:03.241Z,101725.41
2018-12-11T04:30:30.675Z,101715.08
2018-12-11T04:32:58.105Z,101723.47
2018-12-11T04:35:26.608Z,101726.13
2018-12-11T04:37:54.101Z,101723.16
2018-12-11T04:40:21.533Z,101717.50
2018-12-11T04:42:49.002Z,101730.86
2018-12-11T04:45:16.430Z,101731.70
2018-12-11T04:47:43.871Z,101730.86
2018-12-11T04:50:11.319Z,101730.52
2018-12-11T04:52:38.849Z,101725.30
2018-12-11T04:55:06.605Z,101729.97
2018-12-11T04:57:34.055Z,101728.59
2018-12-11T05:00:01.475Z,101728.94
2018-12-11T05:02:29.001Z,101736.30
2018-12-11T05:04:56.664Z,101736.35
2018-12-11T05:07:24.113Z,101737.21
2018-12-11T05:09:51.539Z,101729.88
2018-12-11T05:12:19.034Z,101729.52
2018-12-11T05:14:46.454Z,101732.66
2018-12-11T05:17:13.931Z,101724.38
2018-12-11T05:19:41.336Z,101726.57
2018-12-11T05:22:08.841Z,101738.24
2018-12-11T05:24:36.639Z,101744.84
2018-12-11T05:27:04.184Z,101733.69
2018-12-11T05:29:31.744Z,101732.46
2018-12-11T05:31:59.222Z,101725.14
2018-12-11T05:34:26.655Z,101731.69
2018-12-11T05:36:54.259Z,101729.15
2018-12-11T05:39:21.688Z,101730.05
2018-12-11T05:41:49.170Z,101726.03
2018-12-11T05:44:16.591Z,101729.35
2018-12-11T05:46:44.068Z,101725.47
2018-12-11T05:49:11.535Z,101713.42
2018-12-11T05:51:39.029Z,101732.41
2018-12-11T05:54:06.472Z,101728.84
2018-12-11T05:56:39.060Z,101737.07
2018-12-11T05:59:06.499Z,101741.02
2018-12-11T06:01:33.922Z,101746.33
2018-12-11T06:04:01.461Z,101750.28
2018-12-11T06:06:29.077Z,101748.31
2018-12-11T06:08:56.526Z,101751.42
2018-12-11T06:11:24.002Z,101754.80
2018-12-11T06:13:51.445Z,101756.04
2018-12-11T06:16:19.376Z,101753.94
2018-12-11T06:18:46.840Z,101743.25
2018-12-11T06:21:14.316Z,101737.43
2018-12-11T06:23:41.767Z,101744.45
2018-12-11T06:26:09.262Z,101748.22
2018-12-11T06:28:36.673Z,101755.64
2018-12-11T06:31:04.124Z,101751.75
2018-12-11T06:33:31.569Z,101747.89
2018-12-11T06:35:58.987Z,101744.21
2018-12-11T06:38:26.571Z,101738.89
2018-12-11T06:40:53.991Z,101739.22
2018-12-11T06:43:21.413Z,101733.20
2018-12-11T06:45:48.853Z,101727.95
2018-12-11T06:48:16.447Z,101726.53
2018-12-11T06:50:43.869Z,101726.34
2018-12-11T06:53:11.280Z,101730.48
2018-12-11T06:55:38.716Z,101734.23
2018-12-11T06:58:06.128Z,101734.16
2018-12-11T07:00:33.586Z,101738.31
2018-12-11T07:03:00.997Z,101735.25
2018-12-11T07:05:28.946Z,101730.42
2018-12-11T07:07:56.365Z,101732.55
2018-12-11T07:10:23.794Z,101733.84
2018-12-11T07:12:51.238Z,101736.48
2018-12-11T07:15:18.679Z,101733.19
2018-12-11T07:17:46.133Z,101731.14
2018-12-11T07:20:13.606Z,101735.07
2018-12-11T07:22:41.042Z,101734.75
2018-12-11T07:25:08.550Z,101733.85
2018-12-11T07:27:35.976Z,101730.02
2018-12-11T07:30:05.038Z,101733.06
2018-12-11T07:32:32.467Z,101737.09
2018-12-11T07:34:59.898Z,101735.47
2018-12-11T07:37:27.337Z,101740.25
2018-12-11T07:39:54.747Z,101744.61
2018-12-11T07:42:22.189Z,101742.51
2018-12-11T07:44:49.622Z,101746.27
2018-12-11T07:47:17.035Z,101748.40
2018-12-11T07:49:44.472Z,101748.03
2018-12-11T07:52:11.900Z,101742.78
2018-12-11T07:54:39.361Z,101744.86
2018-12-11T07:57:06.801Z,101743.50
2018-12-11T07:59:34.567Z,101745.09
2018-12-11T08:02:02.000Z,101738.87
2018-12-11T08:04:29.444Z,101740.88
2018-12-11T08:06:57.003Z,101747.36
2018-12-11T08:09:24.439Z,101749.13
2018-12-11T08:11:51.862Z,101746.08
2018-12-11T08:14:19.336Z,101749.05
2018-12-11T08:16:46.845Z,101748.53
2018-12-11T08:19:14.258Z,101741.20
2018-12-11T08:21:41.784Z,101739.45
2018-12-11T08:24:09.247Z,101744.31
2018-12-11T08:26:36.680Z,101749.03
2018-12-11T08:29:04.478Z,101748.14
2018-12-11T08:31:32.277Z,101739.48
2018-12-11T08:33:59.840Z,101745.16
2018-12-11T08:36:27.280Z,101741.36
2018-12-11T08:38:59.934Z,101737.59
2018-12-11T08:41:27.398Z,101738.05
2018-12-11T08:43:54.814Z,101738.95
2018-12-11T08:46:22.289Z,101740.33
2018-12-11T08:48:49.794Z,101746.88
2018-12-11T08:51:17.228Z,101740.45
2018-12-11T08:53:44.675Z,101746.47
2018-12-11T08:56:12.124Z,101750.80
2018-12-11T08:58:39.660Z,101744.79
2018-12-11T09:01:08.187Z,101746.61
2018-12-11T09:03:35.870Z,101748.87
2018-12-11T09:06:03.359Z,101751.98
2018-12-11T09:08:30.971Z,101752.05
2018-12-11T09:10:58.403Z,101756.89
2018-12-11T09:13:25.894Z,101750.03
2018-12-11T09:15:53.319Z,101755.34
2018-12-11T09:18:20.835Z,101758.95
2018-12-11T09:20:48.303Z,101756.55
2018-12-11T09:23:15.738Z,101755.45
2018-12-11T09:25:43.161Z,101753.88
2018-12-11T09:28:11.233Z,101762.16
2018-12-11T09:30:39.179Z,101765.27
2018-12-11T09:33:06.620Z,101765.33
2018-12-11T09:35:34.143Z,101757.45
2018-12-11T09:38:01.577Z,101767.81
2018-12-11T09:40:29.027Z,101770.05
2018-12-11T09:42:56.454Z,101770.53
2018-12-11T09:45:23.864Z,101777.62
2018-12-11T09:47:51.333Z,101778.16
2018-12-11T09:50:18.782Z,101785.09
2018-12-11T09:52:46.221Z,101778.27
2018-12-11T09:55:13.647Z,101775.86
2018-12-11T09:57:41.079Z,101776.09
2018-12-11T10:00:08.616Z,101776.33
2018-12-11T10:02:36.215Z,101772.70
2018-12-11T10:05:04.206Z,101782.47
2018-12-11T10:07:31.737Z,101773.68
2018-12-11T10:09:59.170Z,101779.05
2018-12-11T10:12:26.604Z,101780.90
2018-12-11T10:14:54.046Z,101779.30
2018-12-11T10:17:21.578Z,101775.50
2018-12-11T10:19:49.140Z,101782.05
2018-12-11T10:22:16.623Z,101779.16
2018-12-11T10:24:44.060Z,101786.65
2018-12-11T10:27:11.623Z,101781.91
2018-12-11T10:29:39.192Z,101778.51
2018-12-11T10:32:06.649Z,101782.91
2018-12-11T10:34:34.114Z,101779.46
2018-12-11T10:37:01.570Z,101789.50
2018-12-11T10:39:28.982Z,101789.50
2018-12-11T10:41:56.446Z,101785.20
2018-12-11T10:44:23.860Z,101778.80
2018-12-11T10:46:51.312Z,101781.55
2018-12-11T10:49:18.741Z,101776.80
2018-12-11T10:51:46.174Z,101775.59
2018-12-11T10:54:13.664Z,101774.34
2018-12-11T10:56:41.216Z,101783.17
2018-12-11T10:59:08.679Z,101773.77
2018-12-11T11:01:37.735Z,101776.06
2018-12-11T11:04:05.565Z,101773.54
2018-12-11T11:06:33.011Z,101772.25
2018-12-11T11:09:00.557Z,101776.23
2018-12-11T11:11:28.007Z,101774.08
2018-12-11T11:13:55.484Z,101765.34
2018-12-11T11:16:22.928Z,101764.05
2018-12-11T11:18:50.348Z,101765.52
2018-12-11T11:21:17.794Z,101762.02
2018-12-11T11:23:45.234Z,101763.28
2018-12-11T11:26:12.701Z,101769.33
2018-12-11T11:28:40.143Z,101768.48
2018-12-11T11:31:07.557Z,101755.88
2018-12-11T11:33:35.036Z,101753.87
2018-12-11T11:36:02.446Z,101751.95
2018-12-11T11:38:29.976Z,101749.89
2018-12-11T11:40:57.619Z,101746.47
2018-12-11T11:43:25.114Z,101750.25
2018-12-11T11:45:52.522Z,101744.89
2018-12-11T11:48:19.964Z,101745.17
2018-12-11T11:50:47.497Z,101754.99
2018-12-11T11:53:14.938Z,101751.90
2018-12-11T11:55:42.543Z,101737.04
2018-12-11T11:58:09.978Z,101732.89
2018-12-11T12:00:37.386Z,101734.47
2018-12-11T12:03:04.969Z,101726.22
2018-12-11T12:05:32.388Z,101722.09
2018-12-11T12:08:00.128Z,101716.20
2018-12-11T12:10:27.550Z,101729.31
2018-12-11T12:12:54.995Z,101732.46
2018-12-11T12:15:22.437Z,101724.39
2018-12-11T12:17:50.023Z,101723.23
2018-12-11T12:20:17.438Z,101727.98
2018-12-11T12:22:44.878Z,101732.08
2018-12-11T12:25:13.874Z,101733.09
2018-12-11T12:27:41.311Z,101734.67
2018-12-11T12:30:08.909Z,101735.80
2018-12-11T12:32:36.394Z,101742.02
2018-12-11T12:35:04.293Z,101740.41
2018-12-11T12:37:31.931Z,101737.95
2018-12-11T12:39:59.455Z,101734.87
2018-12-11T12:42:26.875Z,101738.91
2018-12-11T12:44:54.291Z,101733.75
2018-12-11T12:47:21.838Z,101736.91
2018-12-11T12:49:50.656Z,101738.35
2018-12-11T12:52:18.543Z,101731.78
2018-12-11T12:54:46.110Z,101729.95
2018-12-11T12:57:13.636Z,101728.09
2018-12-11T12:59:41.074Z,101728.87
2018-12-11T13:02:08.508Z,101728.73
2018-12-11T13:04:35.989Z,101720.81
2018-12-11T13:07:03.548Z,101722.66
2018-12-11T13:09:30.990Z,101719.56
2018-12-11T13:11:58.435Z,101723.72
2018-12-11T13:14:25.862Z,101716.45
2018-12-11T13:16:53.326Z,101723.42
2018-12-11T13:19:20.863Z,101713.77
2018-12-11T13:21:48.861Z,101718.94
2018-12-11T13:24:22.262Z,101716.59
2018-12-11T13:26:50.136Z,101714.61
2018-12-11T13:29:17.564Z,101708.33
2018-12-11T13:31:45.014Z,101723.33
2018-12-11T13:34:12.514Z,101720.65
2018-12-11T13:36:39.974Z,101718.80
2018-12-11T13:39:07.403Z,101714.77
2018-12-11T13:41:34.856Z,101722.77
2018-12-11T13:44:02.851Z,101717.53
2018-12-11T13:46:30.591Z,101715.41
2018-12-11T13:48:58.206Z,101717.59
2018-12-11T13:51:25.745Z,101712.67
2018-12-11T13:53:53.266Z,101710.40
2018-12-11T13:56:20.778Z,101712.30
2018-12-11T13:58:48.207Z,101703.34
2018-12-11T14:01:15.655Z,101703.84
2018-12-11T14:03:43.178Z,101704.67
2018-12-11T14:06:10.666Z,101702.41
2018-12-11T14:08:38.126Z,101709.39
2018-12-11T14:11:05.708Z,101703.34
2018-12-11T14:13:33.185Z,101706.92
2018-12-11T14:16:00.611Z,101703.95
2018-12-11T14:18:37.422Z,101709.61
2018-12-11T14:21:02.528Z,101701.69
2018-12-11T14:23:29.993Z,101703.73
2018-12-11T14:25:57.409Z,101707.00
2018-12-11T14:28:24.845Z,101709.52
2018-12-11T14:30:52.336Z,101702.91
2018-12-11T14:33:19.772Z,101695.93
2018-12-11T14:35:47.197Z,101704.53
2018-12-11T14:38:14.637Z,101712.34
2018-12-11T14:40:42.062Z,101707.07
2018-12-11T14:43:09.492Z,101708.31
2018-12-11T14:45:41.841Z,101715.16
2018-12-11T14:48:09.270Z,101711.70
2018-12-11T14:50:41.842Z,101703.86
2018-12-11T14:53:09.419Z,101707.36
2018-12-11T14:55:36.851Z,101709.52
2018-12-11T14:58:04.283Z,101716.84
2018-12-11T15:00:31.702Z,101712.05
2018-12-11T15:02:59.306Z,101718.93
2018-12-11T15:05:27.003Z,101711.53
2018-12-11T15:07:54.500Z,101718.00
2018-12-11T15:10:22.070Z,101715.70
2018-12-11T15:12:52.440Z,101716.94
2018-12-11T15:15:19.893Z,101717.72
2018-12-11T15:17:47.294Z,101716.31
2018-12-11T15:20:15.022Z,101716.27
2018-12-11T15:22:42.442Z,101716.38
2018-12-11T15:25:09.888Z,101715.19
2018-12-11T15:27:37.311Z,101714.38
2018-12-11T15:30:05.206Z,101710.40
2018-12-11T15:32:32.666Z,101717.75
2018-12-11T15:35:00.124Z,101716.42
2018-12-11T15:37:27.654Z,101716.48
2018-12-11T15:39:55.187Z,101719.58
2018-12-11T15:42:22.633Z,101723.52
2018-12-11T15:44:50.056Z,101725.30
2018-12-11T15:47:17.511Z,101745.07
2018-12-11T15:49:44.961Z,101751.10
2018-12-11T15:52:12.525Z,101735.09
2018-12-11T15:54:39.934Z,101736.77
2018-12-11T15:57:07.565Z,101733.59
2018-12-11T15:59:35.002Z,101734.03
2018-12-11T16:02:02.434Z,101734.66
2018-12-11T16:04:29.973Z,101736.50
2018-12-11T16:06:57.454Z,101739.63
2018-12-11T16:09:39.456Z,101736.27
2018-12-11T16:12:06.973Z,101734.44
2018-12-11T16:14:34.550Z,101739.72
2018-12-11T16:17:02.002Z,101737.16
2018-12-11T16:19:29.499Z,101741.14
2018-12-11T16:21:56.940Z,101744.56
2018-12-11T16:24:24.382Z,101744.55
2018-12-11T16:26:51.883Z,101744.06
2018-12-11T16:29:19.326Z,101744.06
2018-12-11T16:31:46.773Z,101744.02
2018-12-11T16:34:14.210Z,101747.83
2018-12-11T16:36:41.726Z,101744.70
2018-12-11T16:39:09.180Z,101742.45
2018-12-11T16:41:36.624Z,101744.07
2018-12-11T16:44:04.096Z,101744.02
2018-12-11T16:46:31.685Z,101746.98
2018-12-11T16:48:59.138Z,101752.13
2018-12-11T16:51:26.732Z,101749.93
2018-12-11T16:53:54.191Z,101748.23
2018-12-11T16:56:21.627Z,101750.02
2018-12-11T16:58:49.132Z,101748.73
2018-12-11T17:01:16.574Z,101753.52
2018-12-11T17:03:44.053Z,101751.38
2018-12-11T17:06:11.505Z,101747.02
2018-12-11T17:08:38.956Z,101749.22
2018-12-11T17:11:06.371Z,101758.36
2018-12-11T17:13:33.829Z,101748.86
2018-12-11T17:16:01.334Z,101751.45
2018-12-11T17:18:28.876Z,101758.00
2018-12-11T17:20:56.425Z,101762.30
2018-12-11T17:23:23.911Z,101756.25
2018-12-11T17:25:51.372Z,101759.70
2018-12-11T17:28:18.789Z,101764.05
2018-12-11T17:30:46.285Z,101757.59
2018-12-11T17:33:13.829Z,101758.85
2018-12-11T17:35:41.279Z,101756.70
2018-12-11T17:38:08.738Z,101759.30
2018-12-11T17:40:41.221Z,101758.84
2018-12-11T17:43:09.009Z,101751.05
2018-12-11T17:45:36.562Z,101758.36
2018-12-11T17:48:04.362Z,101768.66
2018-12-11T17:50:31.971Z,101769.02
2018-12-11T17:52:59.425Z,101772.05
2018-12-11T17:55:26.936Z,101775.51
2018-12-11T17:57:54.398Z,101769.50
2018-12-11T18:00:21.959Z,101779.48
2018-12-11T18:02:49.719Z,101779.89
2018-12-11T18:05:17.235Z,101778.95
2018-12-11T18:07:44.670Z,101775.45
2018-12-11T18:10:12.469Z,101774.15
2018-12-11T18:12:39.935Z,101776.75
2018-12-11T18:15:07.499Z,101776.35
2018-12-11T18:17:34.962Z,101784.49
2018-12-11T18:20:02.651Z,101790.94
2018-12-11T18:22:30.088Z,101787.05
2018-12-11T18:24:57.615Z,101786.28
2018-12-11T18:27:25.051Z,101794.98
2018-12-11T18:29:52.501Z,101787.23
2018-12-11T18:32:25.077Z,101793.77
2018-12-11T18:34:50.202Z,101798.08
2018-12-11T18:37:17.619Z,101793.78
2018-12-11T18:39:45.180Z,101801.62
2018-12-11T18:42:12.599Z,101801.66
2018-12-11T18:44:40.077Z,101797.33
2018-12-11T18:47:07.515Z,101800.72
2018-12-11T18:49:34.994Z,101799.73
2018-12-11T18:52:02.461Z,101804.52
2018-12-11T18:54:29.881Z,101807.97
2018-12-11T18:56:57.451Z,101815.31
2018-12-11T18:59:24.882Z,101806.63
2018-12-11T19:01:52.324Z,101806.53
2018-12-11T19:04:19.777Z,101801.33
2018-12-11T19:06:47.219Z,101805.67
2018-12-11T19:09:14.652Z,101807.28
2018-12-11T19:11:42.092Z,101804.62
2018-12-11T19:14:09.525Z,101799.39
2018-12-11T19:16:37.007Z,101812.42
2018-12-11T19:19:04.425Z,101801.63
2018-12-11T19:21:31.897Z,101802.47
2018-12-11T19:23:59.416Z,101800.63
2018-12-11T19:26:26.957Z,101798.38
2018-12-11T19:28:54.522Z,101790.05
2018-12-11T19:31:21.985Z,101800.42
2018-12-11T19:33:49.523Z,101803.41
2018-12-11T19:36:16.978Z,101799.58
2018-12-11T19:38:44.437Z,101807.07
2018-12-11T19:41:12.444Z,101801.92
2018-12-11T19:43:39.929Z,101796.78
2018-12-11T19:46:11.463Z,101801.58
2018-12-11T19:48:38.936Z,101805.38
2018-12-11T19:51:06.374Z,101801.48
2018-12-11T19:53:33.811Z,101802.28
2018-12-11T19:56:01.671Z,101803.28
2018-12-11T19:58:29.284Z,101804.13
2018-12-11T20:00:56.720Z,101808.03
2018-12-11T20:03:24.220Z,101810.67
2018-12-11T20:05:51.859Z,101812.46
2018-12-11T20:08:19.321Z,101805.58
2018-12-11T20:10:48.738Z,101807.58
2018-12-11T20:13:16.243Z,101807.97
2018-12-11T20:15:43.661Z,101813.27
2018-12-11T20:18:13.026Z,101815.06
2018-12-11T20:20:40.621Z,101812.02
2018-12-11T20:23:08.193Z,101805.83
2018-12-11T20:25:35.729Z,101807.81
2018-12-11T20:28:03.667Z,101801.33
2018-12-11T20:30:31.206Z,101804.38
2018-12-11T20:32:58.845Z,101799.97
2018-12-11T20:35:26.523Z,101803.03
2018-12-11T20:37:53.943Z,101802.23
2018-12-11T20:40:21.449Z,101800.58
2018-12-11T20:42:48.862Z,101802.78
2018-12-11T20:45:16.604Z,101799.78
2018-12-11T20:47:49.292Z,101800.23
2018-12-11T20:50:16.913Z,101794.95
2018-12-11T20:52:44.394Z,101796.53
2018-12-11T20:55:11.824Z,101796.83
2018-12-11T20:57:39.376Z,101801.52
2018-12-11T21:00:08.923Z,101800.28
2018-12-11T21:02:36.465Z,101804.31
2018-12-11T21:05:04.370Z,101806.17
2018-12-11T21:07:31.954Z,101804.42
2018-12-11T21:09:59.534Z,101803.12
2018-12-11T21:12:27.522Z,101800.53
2018-12-11T21:14:54.953Z,101801.38
2018-12-11T21:17:22.430Z,101803.02
2018-12-11T21:19:49.934Z,101801.17
2018-12-11T21:22:17.407Z,101800.27
2018-12-11T21:24:44.921Z,101808.91
2018-12-11T21:27:12.686Z,101804.51
2018-12-11T21:29:40.173Z,101800.91
2018-12-11T21:32:07.611Z,101795.16
2018-12-11T21:34:35.428Z,101792.46
2018-12-11T21:37:02.954Z,101804.08
2018-12-11T21:39:30.420Z,101803.13
2018-12-11T21:41:57.888Z,101794.78
2018-12-11T21:44:25.574Z,101799.81
2018-12-11T21:46:53.187Z,101800.61
2018-12-11T21:49:20.645Z,101793.67
2018-12-11T21:51:48.156Z,101803.11
2018-12-11T21:54:15.632Z,101799.16
2018-12-11T21:56:43.049Z,101795.66
2018-12-11T21:59:10.516Z,101812.06
2018-12-11T22:01:37.958Z,101804.11
2018-12-11T22:04:05.661Z,101799.65
2018-12-11T22:06:33.447Z,101803.93
2018-12-11T22:09:01.019Z,101801.61
2018-12-11T22:11:28.474Z,101813.06
2018-12-11T22:13:55.919Z,101812.99
2018-12-11T22:16:24.899Z,101811.64
2018-12-11T22:18:52.342Z,101809.05
2018-12-11T22:21:19.770Z,101808.65
2018-12-11T22:23:47.270Z,101803.06
2018-12-11T22:26:14.734Z,101810.86
2018-12-11T22:28:42.195Z,101813.89
2018-12-11T22:31:09.667Z,101821.66
2018-12-11T22:33:37.321Z,101814.23
2018-12-11T22:36:04.795Z,101816.36
2018-12-11T22:38:32.373Z,101821.04
2018-12-11T22:40:59.830Z,101817.94
2018-12-11T22:43:27.490Z,101822.67
2018-12-11T22:45:55.154Z,101824.41
2018-12-11T22:48:22.850Z,101818.77
2018-12-11T22:50:50.570Z,101820.01
2018-12-11T22:53:18.033Z,101820.84
2018-12-11T22:55:46.033Z,101816.45
2018-12-11T22:58:13.458Z,101813.41
2018-12-11T23:00:43.760Z,101816.84
2018-12-11T23:03:11.315Z,101827.59
2018-12-11T23:05:38.924Z,101829.29
2018-12-11T23:08:06.485Z,101835.75
2018-12-11T23:10:33.957Z,101829.66
2018-12-11T23:13:01.547Z,101829.61
2018-12-11T23:15:28.970Z,101831.30
2018-12-11T23:17:56.437Z,101831.69
2018-12-11T23:20:23.884Z,101833.83
2018-12-11T23:22:54.139Z,101835.05
2018-12-11T23:25:21.576Z,101839.77
2018-12-11T23:27:49.018Z,101835.43
2018-12-11T23:30:16.470Z,101838.42
2018-12-11T23:32:44.007Z,101832.33
2018-12-11T23:35:11.431Z,101828.38
2018-12-11T23:37:39.038Z,101830.91
2018-12-11T23:40:06.519Z,101830.86
2018-12-11T23:42:34.666Z,101832.53
2018-12-11T23:45:02.966Z,101821.70
2018-12-11T23:47:31.346Z,101825.14
2018-12-11T23:49:58.854Z,101825.91
2018-12-11T23:52:26.289Z,101817.58
2018-12-11T23:54:53.730Z,101819.30
2018-12-11T23:57:21.162Z,101816.53
2018-12-11T23:59:48.657Z,101822.47
